createdAt,value
2018-02-07T00:02:06.125Z,93.96
2018-02-07T00:04:34.068Z,93.85
2018-02-07T00:07:01.910Z,94.32
2018-02-07T00:09:29.680Z,94.15
2018-02-07T00:11:57.507Z,93.97
2018-02-07T00:14:25.275Z,93.80
2018-02-07T00:16:53.116Z,93.86
2018-02-07T00:19:21.015Z,94.00
2018-02-07T00:21:48.838Z,94.20
2018-02-07T00:24:16.606Z,94.39
2018-02-07T00:26:44.472Z,94.48
2018-02-07T00:29:12.238Z,94.53
2018-02-07T00:31:40.204Z,94.58
2018-02-07T00:34:08.144Z,94.69
2018-02-07T00:36:36.199Z,94.73
2018-02-07T00:39:04.138Z,94.68
2018-02-07T00:41:31.927Z,94.66
2018-02-07T00:43:59.711Z,94.73
2018-02-07T00:46:27.524Z,94.97
2018-02-07T00:48:55.367Z,95.15
2018-02-07T00:51:23.272Z,95.28
2018-02-07T00:53:51.067Z,95.34
2018-02-07T00:56:18.926Z,95.40
2018-02-07T00:58:46.719Z,95.58
2018-02-07T01:01:14.546Z,95.90
2018-02-07T01:03:42.322Z,96.10
2018-02-07T01:06:10.103Z,96.04
2018-02-07T01:08:37.965Z,95.91
2018-02-07T01:11:05.748Z,95.85
2018-02-07T01:13:33.583Z,95.80
2018-02-07T01:16:01.524Z,95.82
2018-02-07T01:18:29.352Z,95.86
2018-02-07T01:20:57.283Z,95.89
2018-02-07T01:23:25.139Z,95.87
2018-02-07T01:25:52.939Z,95.84
2018-02-07T01:28:20.758Z,95.87
2018-02-07T01:30:48.519Z,95.94
2018-02-07T01:33:16.340Z,96.07
2018-02-07T01:35:44.071Z,96.19
2018-02-07T01:38:12.052Z,96.27
2018-02-07T01:40:39.901Z,96.39
2018-02-07T01:43:07.753Z,96.39
2018-02-07T01:45:35.627Z,96.34
2018-02-07T01:48:03.513Z,96.41
2018-02-07T01:50:31.273Z,96.47
2018-02-07T01:52:59.121Z,96.46
2018-02-07T01:55:26.921Z,96.39
2018-02-07T01:57:54.751Z,96.25
2018-02-07T02:00:22.548Z,96.11
2018-02-07T02:02:50.391Z,96.06
2018-02-07T02:05:18.126Z,96.07
2018-02-07T02:07:45.975Z,95.99
2018-02-07T02:10:13.735Z,95.93
2018-02-07T02:12:41.616Z,95.81
2018-02-07T02:15:09.353Z,95.67
2018-02-07T02:17:37.160Z,95.57
2018-02-07T02:20:04.968Z,95.59
2018-02-07T02:22:32.809Z,95.59
2018-02-07T02:25:00.570Z,95.62
2018-02-07T02:27:28.375Z,95.68
2018-02-07T02:29:56.118Z,95.79
2018-02-07T02:32:23.965Z,95.98
2018-02-07T02:34:51.695Z,96.04
2018-02-07T02:37:19.503Z,95.94
2018-02-07T02:39:47.338Z,95.76
2018-02-07T02:42:15.096Z,95.65
2018-02-07T02:44:42.927Z,95.58
2018-02-07T02:47:10.653Z,95.51
2018-02-07T02:49:38.500Z,95.59
2018-02-07T02:52:06.231Z,95.77
2018-02-07T02:54:34.100Z,95.91
2018-02-07T02:57:02.039Z,95.98
2018-02-07T02:59:29.820Z,96.10
2018-02-07T03:01:57.729Z,96.12
2018-02-07T03:04:25.502Z,96.18
2018-02-07T03:06:53.280Z,96.01
2018-02-07T03:09:21.132Z,95.84
2018-02-07T03:11:48.882Z,95.68
2018-02-07T03:14:16.707Z,95.69
2018-02-07T03:16:44.695Z,95.57
2018-02-07T03:19:12.489Z,95.43
2018-02-07T03:21:40.233Z,95.42
2018-02-07T03:24:08.028Z,95.27
2018-02-07T03:26:35.797Z,95.03
2018-02-07T03:29:03.602Z,95.13
2018-02-07T03:31:31.356Z,95.24
2018-02-07T03:33:59.196Z,95.33
2018-02-07T03:36:26.981Z,95.28
2018-02-07T03:38:54.792Z,95.32
2018-02-07T03:41:22.573Z,95.42
2018-02-07T03:43:50.411Z,95.54
2018-02-07T03:46:18.186Z,95.22
2018-02-07T03:48:45.977Z,94.99
2018-02-07T03:51:13.777Z,94.91
2018-02-07T03:53:41.603Z,94.98
2018-02-07T03:56:09.357Z,94.94
2018-02-07T03:58:37.291Z,94.81
2018-02-07T04:01:05.068Z,94.81
2018-02-07T04:03:32.904Z,94.76
2018-02-07T04:06:00.816Z,94.48
2018-02-07T04:08:28.632Z,94.29
2018-02-07T04:10:56.423Z,94.41
2018-02-07T04:13:24.240Z,94.50
2018-02-07T04:15:52.037Z,94.57
2018-02-07T04:18:20.012Z,94.65
2018-02-07T04:20:47.924Z,94.81
2018-02-07T04:23:15.684Z,95.11
2018-02-07T04:25:43.502Z,95.35
2018-02-07T04:28:11.301Z,95.40
2018-02-07T04:30:39.191Z,95.20
2018-02-07T04:33:06.984Z,95.15
2018-02-07T04:35:34.795Z,95.23
2018-02-07T04:38:02.561Z,95.29
2018-02-07T04:40:30.425Z,95.27
2018-02-07T04:42:58.281Z,95.05
2018-02-07T04:45:26.136Z,94.89
2018-02-07T04:47:53.895Z,95.06
2018-02-07T04:50:21.716Z,95.47
2018-02-07T04:52:49.501Z,95.67
2018-02-07T04:55:17.312Z,95.79
2018-02-07T04:57:45.225Z,95.90
2018-02-07T05:00:13.075Z,95.94
2018-02-07T05:02:41.019Z,95.74
2018-02-07T05:05:08.850Z,95.65
2018-02-07T05:07:36.641Z,95.77
2018-02-07T05:10:04.479Z,95.79
2018-02-07T05:12:32.248Z,95.82
2018-02-07T05:15:00.095Z,95.83
2018-02-07T05:17:28.035Z,95.86
2018-02-07T05:19:55.836Z,95.87
2018-02-07T05:22:23.636Z,95.78
2018-02-07T05:24:51.488Z,95.68
2018-02-07T05:27:19.235Z,95.67
2018-02-07T05:29:47.198Z,95.63
2018-02-07T05:32:15.236Z,95.55
2018-02-07T05:34:43.079Z,95.47
2018-02-07T05:37:10.892Z,95.50
2018-02-07T05:39:38.712Z,95.60
2018-02-07T05:42:06.508Z,95.72
2018-02-07T05:44:34.284Z,95.78
2018-02-07T05:47:02.103Z,95.75
2018-02-07T05:49:30.055Z,95.70
2018-02-07T05:51:57.849Z,95.66
2018-02-07T05:54:25.714Z,95.72
2018-02-07T05:56:53.468Z,95.83
2018-02-07T05:59:21.350Z,95.83
2018-02-07T06:01:49.142Z,95.67
2018-02-07T06:04:16.964Z,95.22
2018-02-07T06:06:44.756Z,94.72
2018-02-07T06:09:12.544Z,94.61
2018-02-07T06:11:40.381Z,94.67
2018-02-07T06:14:08.136Z,94.77
2018-02-07T06:16:35.963Z,94.85
2018-02-07T06:19:03.772Z,94.96
2018-02-07T06:21:31.635Z,95.01
2018-02-07T06:23:59.585Z,95.12
2018-02-07T06:26:27.420Z,95.29
2018-02-07T06:28:55.209Z,95.38
2018-02-07T06:31:23.092Z,95.49
2018-02-07T06:33:50.900Z,95.63
2018-02-07T06:36:18.787Z,95.41
2018-02-07T06:38:46.576Z,95.23
2018-02-07T06:41:14.381Z,95.16
2018-02-07T06:43:42.177Z,95.15
2018-02-07T06:46:09.988Z,95.43
2018-02-07T06:48:37.885Z,95.69
2018-02-07T06:51:05.815Z,95.73
2018-02-07T06:53:33.575Z,95.68
2018-02-07T06:56:01.404Z,95.72
2018-02-07T06:58:29.192Z,95.85
2018-02-07T07:00:57.024Z,95.83
2018-02-07T07:03:24.864Z,95.78
2018-02-07T07:05:52.698Z,95.81
2018-02-07T07:08:20.489Z,95.91
2018-02-07T07:10:48.386Z,96.16
2018-02-07T07:13:16.198Z,96.39
2018-02-07T07:15:44.037Z,96.62
2018-02-07T07:18:11.820Z,96.91
2018-02-07T07:20:39.792Z,97.11
2018-02-07T07:23:07.580Z,97.15
2018-02-07T07:25:35.590Z,97.20
2018-02-07T07:28:03.464Z,97.36
2018-02-07T07:30:31.352Z,97.55
2018-02-07T07:32:59.275Z,97.66
2018-02-07T07:35:27.136Z,97.76
2018-02-07T07:37:54.935Z,97.83
2018-02-07T07:40:22.768Z,97.91
2018-02-07T07:42:50.535Z,97.96
2018-02-07T07:45:18.324Z,97.99
2018-02-07T07:47:46.110Z,97.98
2018-02-07T07:50:13.892Z,97.99
2018-02-07T07:52:41.758Z,97.97
2018-02-07T07:58:40.912Z,97.96
2018-02-07T08:01:08.755Z,97.92
2018-02-07T08:03:36.548Z,97.88
2018-02-07T08:06:04.384Z,97.86
2018-02-07T08:08:32.249Z,97.73
2018-02-07T08:11:00.081Z,97.40
2018-02-07T08:13:27.917Z,97.13
2018-02-07T08:15:55.744Z,97.05
2018-02-07T08:18:23.565Z,97.09
2018-02-07T08:20:51.377Z,96.87
2018-02-07T08:23:19.193Z,96.74
2018-02-07T08:25:47.143Z,96.75
2018-02-07T08:28:14.917Z,96.89
2018-02-07T08:30:42.769Z,96.91
2018-02-07T08:33:10.561Z,97.00
2018-02-07T08:35:38.422Z,97.06
2018-02-07T08:38:06.255Z,96.64
2018-02-07T08:40:34.048Z,96.22
2018-02-07T08:43:02.036Z,95.85
2018-02-07T08:45:29.878Z,95.82
2018-02-07T08:47:57.706Z,95.41
2018-02-07T08:50:25.502Z,95.38
2018-02-07T08:52:53.368Z,94.82
2018-02-07T08:55:21.226Z,94.48
2018-02-07T08:57:49.076Z,95.03
2018-02-07T09:00:16.864Z,94.54
2018-02-07T09:02:44.708Z,93.83
2018-02-07T09:05:12.487Z,93.48
2018-02-07T09:07:40.318Z,91.74
2018-02-07T09:10:08.152Z,91.30
2018-02-07T09:12:36.001Z,91.31
2018-02-07T09:15:03.899Z,89.46
2018-02-07T09:17:31.814Z,88.56
2018-02-07T09:19:59.588Z,88.27
2018-02-07T09:22:27.399Z,88.15
2018-02-07T09:24:55.201Z,88.12
2018-02-07T09:27:23.036Z,88.12
2018-02-07T09:29:50.859Z,87.83
2018-02-07T09:32:18.695Z,86.56
2018-02-07T09:34:46.560Z,85.90
2018-02-07T09:37:14.401Z,87.00
2018-02-07T09:39:42.259Z,85.64
2018-02-07T09:42:10.103Z,85.43
2018-02-07T09:44:37.956Z,85.25
2018-02-07T09:47:05.784Z,84.43
2018-02-07T09:49:33.551Z,83.35
2018-02-07T09:52:01.379Z,80.77
2018-02-07T09:54:29.216Z,81.28
2018-02-07T09:56:57.070Z,80.91
2018-02-07T09:59:24.964Z,79.61
2018-02-07T10:01:52.818Z,78.93
2018-02-07T10:04:20.624Z,78.42
2018-02-07T10:06:48.438Z,77.88
2018-02-07T10:09:16.566Z,76.31
2018-02-07T10:11:44.384Z,74.22
2018-02-07T10:14:12.163Z,75.67
2018-02-07T10:16:40.062Z,74.65
2018-02-07T10:19:07.902Z,72.58
2018-02-07T10:21:36.003Z,72.17
2018-02-07T10:24:03.855Z,70.48
2018-02-07T10:26:31.939Z,70.49
2018-02-07T10:28:59.786Z,68.11
2018-02-07T10:31:27.546Z,66.94
2018-02-07T10:33:55.396Z,66.66
2018-02-07T10:36:23.204Z,66.57
2018-02-07T10:38:51.106Z,68.07
2018-02-07T10:41:18.985Z,68.69
2018-02-07T10:43:46.838Z,68.09
2018-02-07T10:46:14.612Z,68.23
2018-02-07T10:48:42.472Z,66.18
2018-02-07T10:51:10.252Z,67.02
2018-02-07T10:53:38.031Z,66.59
2018-02-07T10:56:05.876Z,67.50
2018-02-07T10:58:33.773Z,66.97
2018-02-07T11:01:01.561Z,66.88
2018-02-07T11:03:29.449Z,66.43
2018-02-07T11:05:57.189Z,67.33
2018-02-07T11:08:25.022Z,66.58
2018-02-07T11:10:52.799Z,66.37
2018-02-07T11:13:20.574Z,65.25
2018-02-07T11:15:48.328Z,65.78
2018-02-07T11:18:16.140Z,65.66
2018-02-07T11:20:43.910Z,65.90
2018-02-07T11:23:11.710Z,67.01
2018-02-07T11:25:39.452Z,66.62
2018-02-07T11:28:07.286Z,64.56
2018-02-07T11:30:35.065Z,64.35
2018-02-07T11:33:02.889Z,65.00
2018-02-07T11:35:30.673Z,65.12
2018-02-07T11:37:58.507Z,64.73
2018-02-07T11:40:26.265Z,66.38
2018-02-07T11:42:54.103Z,64.87
2018-02-07T11:45:21.860Z,65.20
2018-02-07T11:47:49.635Z,63.31
2018-02-07T11:50:18.196Z,63.30
2018-02-07T11:52:46.046Z,64.22
2018-02-07T11:55:13.840Z,62.63
2018-02-07T11:57:41.729Z,61.40
2018-02-07T12:00:09.498Z,61.29
2018-02-07T12:02:37.299Z,62.08
2018-02-07T12:05:05.099Z,62.70
2018-02-07T12:07:32.891Z,63.64
2018-02-07T12:10:00.851Z,63.85
2018-02-07T12:12:28.636Z,63.42
2018-02-07T12:14:56.440Z,62.68
2018-02-07T12:17:24.367Z,63.49
2018-02-07T12:19:52.206Z,63.15
2018-02-07T12:22:20.051Z,61.66
2018-02-07T12:24:47.844Z,62.25
2018-02-07T12:27:15.646Z,62.93
2018-02-07T12:29:44.441Z,62.13
2018-02-07T12:32:12.212Z,62.14
2018-02-07T12:34:40.132Z,62.29
2018-02-07T12:37:07.947Z,62.43
2018-02-07T12:39:35.808Z,61.73
2018-02-07T12:42:04.662Z,59.56
2018-02-07T12:44:32.569Z,58.50
2018-02-07T12:47:00.346Z,57.36
2018-02-07T12:49:28.156Z,58.72
2018-02-07T12:51:55.995Z,58.81
2018-02-07T12:54:24.007Z,59.66
2018-02-07T12:56:51.773Z,60.46
2018-02-07T12:59:19.591Z,59.48
2018-02-07T13:01:47.382Z,59.93
2018-02-07T13:04:15.195Z,59.27
2018-02-07T13:06:42.968Z,58.45
2018-02-07T13:09:10.783Z,58.61
2018-02-07T13:11:38.579Z,60.01
2018-02-07T13:14:06.407Z,59.33
2018-02-07T13:16:34.172Z,60.10
2018-02-07T13:19:02.007Z,60.20
2018-02-07T13:21:29.775Z,59.98
2018-02-07T13:23:57.647Z,60.95
2018-02-07T13:26:25.747Z,60.97
2018-02-07T13:28:53.659Z,61.12
2018-02-07T13:31:21.420Z,61.57
2018-02-07T13:33:49.224Z,61.44
2018-02-07T13:36:17.024Z,61.72
2018-02-07T13:38:44.860Z,61.56
2018-02-07T13:41:12.623Z,61.71
2018-02-07T13:43:40.460Z,62.20
2018-02-07T13:46:08.302Z,61.48
2018-02-07T13:48:36.080Z,62.28
2018-02-07T13:51:03.904Z,62.29
2018-02-07T13:53:31.688Z,62.69
2018-02-07T13:55:59.528Z,61.14
2018-02-07T13:58:27.328Z,62.61
2018-02-07T14:00:55.162Z,62.12
2018-02-07T14:03:22.955Z,63.08
2018-02-07T14:05:50.756Z,62.06
2018-02-07T14:08:18.620Z,61.87
2018-02-07T14:10:46.490Z,61.72
2018-02-07T14:13:14.255Z,61.68
2018-02-07T14:15:42.168Z,62.91
2018-02-07T14:18:09.939Z,62.53
2018-02-07T14:20:37.878Z,62.00
2018-02-07T14:23:05.975Z,61.44
2018-02-07T14:25:33.837Z,60.74
2018-02-07T14:28:01.666Z,59.57
2018-02-07T14:30:29.506Z,60.27
2018-02-07T14:33:03.023Z,60.76
2018-02-07T14:35:31.621Z,61.72
2018-02-07T14:37:59.358Z,61.07
2018-02-07T14:40:27.169Z,60.81
2018-02-07T14:42:54.940Z,61.83
2018-02-07T14:45:22.823Z,60.85
2018-02-07T14:47:50.635Z,60.74
2018-02-07T14:50:18.434Z,62.49
2018-02-07T14:52:46.312Z,63.33
2018-02-07T14:55:14.185Z,62.30
2018-02-07T14:57:42.929Z,61.93
2018-02-07T15:00:10.956Z,61.42
2018-02-07T15:02:38.791Z,62.42
2018-02-07T15:05:06.637Z,61.48
2018-02-07T15:07:34.431Z,61.80
2018-02-07T15:10:02.220Z,61.99
2018-02-07T15:12:30.113Z,62.14
2018-02-07T15:14:57.942Z,63.18
2018-02-07T15:17:25.740Z,62.77
2018-02-07T15:19:53.786Z,62.82
2018-02-07T15:22:21.580Z,63.12
2018-02-07T15:24:49.391Z,64.43
2018-02-07T15:27:17.176Z,65.55
2018-02-07T15:29:45.001Z,65.42
2018-02-07T15:32:12.858Z,64.88
2018-02-07T15:34:40.700Z,65.45
2018-02-07T15:37:08.515Z,66.00
2018-02-07T15:39:36.280Z,66.45
2018-02-07T15:42:04.104Z,66.05
2018-02-07T15:44:31.845Z,66.50
2018-02-07T15:46:59.668Z,66.88
2018-02-07T15:49:27.464Z,67.41
2018-02-07T15:51:55.299Z,68.57
2018-02-07T15:54:23.017Z,67.33
2018-02-07T15:56:50.867Z,67.37
2018-02-07T15:59:18.619Z,68.30
2018-02-07T16:01:46.458Z,68.44
2018-02-07T16:04:14.306Z,68.40
2018-02-07T16:06:42.169Z,68.97
2018-02-07T16:09:10.007Z,69.23
2018-02-07T16:11:37.872Z,69.48
2018-02-07T16:14:05.659Z,70.44
2018-02-07T16:16:33.496Z,71.38
2018-02-07T16:19:01.269Z,70.22
2018-02-07T16:21:29.139Z,69.58
2018-02-07T16:23:57.086Z,69.92
2018-02-07T16:26:24.927Z,70.78
2018-02-07T16:28:52.744Z,71.12
2018-02-07T16:31:20.583Z,71.84
2018-02-07T16:33:48.398Z,73.71
2018-02-07T16:36:16.295Z,76.24
2018-02-07T16:38:44.088Z,77.59
2018-02-07T16:41:11.957Z,77.82
2018-02-07T16:43:39.801Z,78.52
2018-02-07T16:46:07.655Z,79.03
2018-02-07T16:48:35.441Z,79.66
2018-02-07T16:51:03.277Z,79.26
2018-02-07T16:53:31.069Z,78.70
2018-02-07T16:55:58.958Z,78.49
2018-02-07T16:58:26.705Z,79.37
2018-02-07T17:00:54.529Z,78.96
2018-02-07T17:03:22.400Z,78.71
2018-02-07T17:05:50.263Z,79.05
2018-02-07T17:08:18.050Z,78.16
2018-02-07T17:10:45.874Z,77.74
2018-02-07T17:13:13.617Z,76.88
2018-02-07T17:15:41.526Z,76.26
2018-02-07T17:18:09.312Z,75.82
2018-02-07T17:20:37.091Z,75.81
2018-02-07T17:23:04.934Z,76.18
2018-02-07T17:25:32.757Z,76.68
2018-02-07T17:28:00.616Z,77.48
2018-02-07T17:30:28.417Z,78.95
2018-02-07T17:32:56.257Z,81.95
2018-02-07T17:35:24.019Z,83.74
2018-02-07T17:37:51.919Z,84.43
2018-02-07T17:40:19.709Z,84.57
2018-02-07T17:42:47.572Z,84.47
2018-02-07T17:45:15.350Z,84.89
2018-02-07T17:47:43.175Z,84.99
2018-02-07T17:50:11.009Z,84.44
2018-02-07T17:52:38.835Z,86.51
2018-02-07T17:55:06.635Z,86.96
2018-02-07T17:57:34.468Z,87.54
2018-02-07T18:00:02.268Z,88.13
2018-02-07T18:02:30.139Z,88.44
2018-02-07T18:04:57.996Z,88.45
2018-02-07T18:07:25.857Z,89.11
2018-02-07T18:09:53.600Z,89.63
2018-02-07T18:12:21.414Z,89.95
2018-02-07T18:14:49.175Z,90.02
2018-02-07T18:17:16.970Z,90.28
2018-02-07T18:19:44.739Z,90.55
2018-02-07T18:22:12.544Z,90.88
2018-02-07T18:24:40.300Z,91.40
2018-02-07T18:27:08.218Z,91.44
2018-02-07T18:29:36.005Z,91.52
2018-02-07T18:32:03.866Z,91.48
2018-02-07T18:34:31.696Z,91.61
2018-02-07T18:36:59.495Z,92.03
2018-02-07T18:39:27.261Z,92.50
2018-02-07T18:41:55.026Z,92.72
2018-02-07T18:44:22.782Z,92.69
2018-02-07T18:46:50.614Z,92.94
2018-02-07T18:49:18.447Z,93.00
2018-02-07T18:51:46.242Z,92.76
2018-02-07T18:54:14.083Z,92.44
2018-02-07T18:56:41.932Z,92.64
2018-02-07T18:59:09.703Z,92.88
2018-02-07T19:01:37.648Z,93.00
2018-02-07T19:04:05.449Z,92.82
2018-02-07T19:06:33.243Z,92.50
2018-02-07T19:09:01.103Z,92.25
2018-02-07T19:11:28.883Z,92.02
2018-02-07T19:13:56.682Z,91.96
2018-02-07T19:16:24.581Z,91.92
2018-02-07T19:18:52.372Z,91.66
2018-02-07T19:21:20.240Z,91.08
2018-02-07T19:23:48.094Z,91.14
2018-02-07T19:26:15.923Z,92.44
2018-02-07T19:28:43.719Z,93.26
2018-02-07T19:31:11.480Z,93.39
2018-02-07T19:33:39.403Z,92.65
2018-02-07T19:36:07.259Z,91.74
2018-02-07T19:38:35.112Z,91.03
2018-02-07T19:41:02.876Z,90.59
2018-02-07T19:43:30.714Z,90.45
2018-02-07T19:45:58.505Z,90.38
2018-02-07T19:48:26.387Z,90.27
2018-02-07T19:50:54.246Z,90.73
2018-02-07T19:53:22.172Z,91.40
2018-02-07T19:55:49.976Z,91.93
2018-02-07T19:58:17.824Z,92.38
2018-02-07T20:00:45.595Z,92.55
2018-02-07T20:03:13.481Z,92.65
2018-02-07T20:05:41.308Z,92.77
2018-02-07T20:08:09.151Z,93.02
2018-02-07T20:10:36.925Z,93.35
2018-02-07T20:13:04.753Z,94.26
2018-02-07T20:15:32.560Z,94.06
2018-02-07T20:18:00.386Z,93.70
2018-02-07T20:20:28.243Z,93.52
2018-02-07T20:22:56.122Z,93.65
2018-02-07T20:25:23.943Z,93.97
2018-02-07T20:27:51.854Z,93.94
2018-02-07T20:30:19.691Z,93.76
2018-02-07T20:32:47.579Z,93.76
2018-02-07T20:35:15.348Z,93.86
2018-02-07T20:37:43.163Z,94.06
2018-02-07T20:40:10.953Z,93.80
2018-02-07T20:42:38.782Z,93.46
2018-02-07T20:45:06.655Z,92.97
2018-02-07T20:47:34.375Z,92.60
2018-02-07T20:50:02.284Z,92.29
2018-02-07T20:52:30.022Z,92.08
2018-02-07T20:54:57.869Z,91.93
2018-02-07T20:57:25.628Z,92.00
2018-02-07T20:59:53.456Z,92.06
2018-02-07T21:02:21.260Z,92.10
2018-02-07T21:04:49.122Z,92.13
2018-02-07T21:07:16.892Z,92.05
2018-02-07T21:09:44.742Z,91.95
2018-02-07T21:12:12.556Z,92.01
2018-02-07T21:14:40.428Z,92.05
2018-02-07T21:17:08.215Z,92.04
2018-02-07T21:19:36.135Z,92.26
2018-02-07T21:22:03.953Z,92.44
2018-02-07T21:24:31.988Z,93.02
2018-02-07T21:26:59.787Z,93.57
2018-02-07T21:29:27.648Z,94.04
2018-02-07T21:31:55.448Z,94.53
2018-02-07T21:34:23.267Z,94.73
2018-02-07T21:36:51.087Z,94.75
2018-02-07T21:39:18.930Z,94.58
2018-02-07T21:41:46.719Z,94.45
2018-02-07T21:44:14.600Z,94.55
2018-02-07T21:46:42.434Z,94.60
2018-02-07T21:49:10.358Z,94.53
2018-02-07T21:51:38.226Z,94.65
2018-02-07T21:54:06.050Z,94.86
2018-02-07T21:56:33.941Z,95.02
2018-02-07T21:59:01.791Z,95.15
2018-02-07T22:01:29.624Z,95.21
2018-02-07T22:03:57.459Z,95.30
2018-02-07T22:06:25.284Z,95.29
2018-02-07T22:08:53.155Z,95.24
2018-02-07T22:11:21.064Z,95.18
2018-02-07T22:13:48.906Z,95.04
2018-02-07T22:16:16.691Z,94.99
2018-02-07T22:18:44.528Z,95.10
2018-02-07T22:21:12.310Z,95.29
2018-02-07T22:23:40.144Z,95.30
2018-02-07T22:26:07.948Z,95.26
2018-02-07T22:28:35.811Z,95.21
2018-02-07T22:31:03.697Z,95.16
2018-02-07T22:33:31.555Z,95.14
2018-02-07T22:35:59.459Z,95.55
2018-02-07T22:38:27.262Z,95.54
2018-02-07T22:40:55.058Z,95.39
2018-02-07T22:43:22.796Z,95.26
2018-02-07T22:45:50.585Z,95.21
2018-02-07T22:48:18.360Z,95.20
2018-02-07T22:50:46.144Z,95.20
2018-02-07T22:53:13.865Z,95.44
2018-02-07T22:55:41.660Z,95.64
2018-02-07T22:58:09.408Z,95.57
2018-02-07T23:00:37.239Z,95.38
2018-02-07T23:03:04.996Z,95.22
2018-02-07T23:05:32.830Z,95.19
2018-02-07T23:08:00.572Z,95.20
2018-02-07T23:10:28.370Z,95.27
2018-02-07T23:12:56.121Z,95.26
2018-02-07T23:15:23.951Z,95.10
2018-02-07T23:17:51.694Z,94.99
2018-02-07T23:20:19.477Z,94.97
2018-02-07T23:22:47.231Z,94.96
2018-02-07T23:25:15.150Z,95.02
2018-02-07T23:27:42.900Z,95.10
2018-02-07T23:30:10.743Z,95.18
2018-02-07T23:32:38.476Z,95.32
2018-02-07T23:35:06.261Z,95.49
2018-02-07T23:37:34.110Z,95.63
2018-02-07T23:40:01.888Z,95.32
2018-02-07T23:42:29.677Z,95.00
2018-02-07T23:44:57.474Z,94.80
2018-02-07T23:47:25.231Z,94.79
2018-02-07T23:49:53.091Z,94.96
2018-02-07T23:52:20.837Z,95.09
2018-02-07T23:54:48.681Z,95.26
2018-02-07T23:57:16.428Z,95.46
2018-02-07T23:59:44.217Z,95.77
